createdAt,value
2019-04-21T00:02:18.796Z,98824.11
2019-04-21T00:05:33.447Z,98823.05
2019-04-21T00:08:45.137Z,98825.84
2019-04-21T00:11:49.637Z,98821.56
2019-04-21T00:14:47.178Z,98818.22
2019-04-21T00:17:49.333Z,98818.88
2019-04-21T00:20:54.588Z,98815.65
2019-04-21T00:24:26.548Z,98816.33
2019-04-21T00:27:33.821Z,98805.61
2019-04-21T00:30:45.234Z,98814.64
2019-04-21T00:33:34.341Z,98813.48
2019-04-21T00:36:48.890Z,98813.16
2019-04-21T00:40:06.386Z,98804.36
2019-04-21T00:43:03.724Z,98811.37
2019-04-21T00:46:04.850Z,98808.81
2019-04-21T00:49:18.273Z,98814.95
2019-04-21T00:52:46.004Z,98808.55
2019-04-21T00:55:44.517Z,98805.94
2019-04-21T00:58:47.736Z,98803.36
2019-04-21T01:01:49.334Z,98802.34
2019-04-21T01:05:00.134Z,98797.54
2019-04-21T01:08:05.127Z,98797.10
2019-04-21T01:11:12.321Z,98797.06
2019-04-21T01:14:27.241Z,98795.58
2019-04-21T01:17:22.956Z,98788.66
2019-04-21T01:20:16.875Z,98793.61
2019-04-21T01:23:15.048Z,98793.55
2019-04-21T01:26:32.579Z,98792.77
2019-04-21T01:29:46.564Z,98790.36
2019-04-21T01:32:53.988Z,98785.84
2019-04-21T01:35:58.359Z,98784.25
2019-04-21T01:39:07.929Z,98780.33
2019-04-21T01:42:12.726Z,98783.52
2019-04-21T01:45:18.905Z,98778.98
2019-04-21T01:48:21.568Z,98779.77
2019-04-21T01:51:28.105Z,98776.45
2019-04-21T01:54:43.585Z,98773.37
2019-04-21T01:57:48.096Z,98777.83
2019-04-21T02:00:52.039Z,98781.55
2019-04-21T02:07:12.990Z,98770.32
2019-04-21T02:10:21.108Z,98763.59
2019-04-21T02:13:17.125Z,98763.55
2019-04-21T02:16:28.292Z,98765.20
2019-04-21T02:19:28.659Z,98761.97
2019-04-21T02:22:46.348Z,98760.63
2019-04-21T02:25:44.268Z,98758.77
2019-04-21T02:28:58.952Z,98755.66
2019-04-21T02:32:10.401Z,98754.44
2019-04-21T02:38:33.800Z,98743.84
2019-04-21T02:41:31.183Z,98739.95
2019-04-21T02:44:37.504Z,98729.38
2019-04-21T02:47:50.395Z,98732.83
2019-04-21T02:50:47.274Z,98732.48
2019-04-21T02:54:28.593Z,98728.63
2019-04-21T02:57:03.280Z,98728.20
2019-04-21T03:03:26.006Z,98718.86
2019-04-21T03:06:29.494Z,98704.87
2019-04-21T03:09:33.523Z,98703.52
2019-04-21T03:12:28.990Z,98694.69
2019-04-21T03:15:47.269Z,98691.66
2019-04-21T03:18:56.564Z,98689.81
2019-04-21T03:21:57.244Z,98691.81
2019-04-21T03:32:02.097Z,98671.23
2019-04-21T03:34:41.187Z,98675.55
2019-04-21T03:37:35.400Z,98667.70
2019-04-21T03:40:32.300Z,98668.38
2019-04-21T03:43:47.961Z,98668.27
2019-04-21T03:47:01.699Z,98662.97
2019-04-21T03:53:07.009Z,98660.41
2019-04-21T03:59:12.663Z,98666.84
2019-04-21T04:02:26.324Z,98669.69
2019-04-21T04:06:02.026Z,98666.25
2019-04-21T04:09:14.282Z,98663.58
2019-04-21T04:15:18.657Z,98679.33
2019-04-21T04:18:29.894Z,98665.05
2019-04-21T04:21:30.785Z,98672.62
2019-04-21T04:24:31.664Z,98669.79
2019-04-21T04:27:51.483Z,98673.77
2019-04-21T04:30:47.595Z,98669.97
2019-04-21T04:37:05.395Z,98670.78
2019-04-21T04:40:23.300Z,98678.15
2019-04-21T04:43:27.894Z,98670.53
2019-04-21T04:46:18.399Z,98676.62
2019-04-21T04:49:38.669Z,98670.28
2019-04-21T04:55:39.533Z,98668.73
2019-04-21T04:59:20.107Z,98671.05
2019-04-21T05:05:07.084Z,98668.31
2019-04-21T05:08:14.369Z,98663.39
2019-04-21T05:11:23.028Z,98668.67
2019-04-21T05:17:30.960Z,98665.80
2019-04-21T05:20:41.854Z,98666.27
2019-04-21T05:23:26.691Z,98664.73
2019-04-21T05:26:27.405Z,98662.61
2019-04-21T05:29:37.589Z,98658.06
2019-04-21T05:33:00.012Z,98656.09
2019-04-21T05:36:11.106Z,98655.33
2019-04-21T05:39:24.817Z,98651.15
2019-04-21T05:42:35.329Z,98650.89
2019-04-21T05:45:50.039Z,98651.95
2019-04-21T05:49:00.816Z,98660.25
2019-04-21T05:52:00.237Z,98648.91
2019-04-21T05:55:16.680Z,98649.60
2019-04-21T05:58:16.399Z,98654.00
2019-04-21T06:01:55.534Z,98658.72
2019-04-21T06:04:52.631Z,98655.44
2019-04-21T06:07:55.285Z,98654.28
2019-04-21T06:10:47.397Z,98650.38
2019-04-21T06:13:55.532Z,98650.83
2019-04-21T06:17:01.500Z,98646.36
2019-04-21T06:23:13.570Z,98640.43
2019-04-21T06:26:44.897Z,98638.59
2019-04-21T06:29:26.448Z,98629.95
2019-04-21T06:41:58.557Z,98617.75
2019-04-21T06:45:20.187Z,98610.31
2019-04-21T06:48:18.439Z,98607.17
2019-04-21T06:51:26.546Z,98609.78
2019-04-21T06:54:29.153Z,98614.89
2019-04-21T06:57:35.732Z,98615.27
2019-04-21T07:00:39.118Z,98621.44
2019-04-21T07:03:55.480Z,98622.45
2019-04-21T07:06:56.258Z,98617.98
2019-04-21T07:10:01.440Z,98612.38
2019-04-21T07:13:03.906Z,98612.44
2019-04-21T07:16:10.745Z,98617.69
2019-04-21T07:19:21.395Z,98618.03
2019-04-21T07:22:24.693Z,98612.53
2019-04-21T07:25:32.791Z,98612.31
2019-04-21T07:28:46.149Z,98611.08
2019-04-21T07:31:47.129Z,98608.01
2019-04-21T07:34:51.414Z,98613.79
2019-04-21T07:37:53.495Z,98611.66
2019-04-21T07:40:53.889Z,98605.95
2019-04-21T07:43:59.762Z,98612.05
2019-04-21T07:47:13.414Z,98602.42
2019-04-21T07:50:28.594Z,98610.29
2019-04-21T07:53:40.641Z,98604.98
2019-04-21T07:56:32.460Z,98611.40
2019-04-21T07:59:56.553Z,98609.38
2019-04-21T08:02:54.457Z,98607.72
2019-04-21T08:06:02.390Z,98599.07
2019-04-21T08:09:08.936Z,98599.27
2019-04-21T08:12:08.118Z,98595.73
2019-04-21T08:15:36.523Z,98595.41
2019-04-21T08:18:27.008Z,98584.96
2019-04-21T08:21:37.157Z,98586.27
2019-04-21T08:24:42.580Z,98585.33
2019-04-21T08:27:56.815Z,98583.55
2019-04-21T08:30:50.217Z,98580.83
2019-04-21T08:34:00.726Z,98579.08
2019-04-21T08:37:08.768Z,98575.75
2019-04-21T08:40:15.757Z,98564.53
2019-04-21T08:43:23.820Z,98565.81
2019-04-21T08:46:26.722Z,98569.70
2019-04-21T08:49:27.761Z,98558.75
2019-04-21T08:52:44.463Z,98562.09
2019-04-21T08:55:55.418Z,98561.22
2019-04-21T08:59:22.226Z,98557.83
2019-04-21T09:02:27.102Z,98552.31
2019-04-21T09:05:23.376Z,98552.20
2019-04-21T09:08:32.872Z,98551.16
2019-04-21T09:11:40.362Z,98549.78
2019-04-21T09:14:50.685Z,98545.95
2019-04-21T09:17:44.761Z,98544.80
2019-04-21T09:21:01.106Z,98535.81
2019-04-21T09:24:04.586Z,98536.16
2019-04-21T09:27:11.297Z,98535.27
2019-04-21T09:30:04.748Z,98526.62
2019-04-21T09:33:07.397Z,98525.48
2019-04-21T09:36:15.234Z,98524.69
2019-04-21T09:39:22.252Z,98521.84
2019-04-21T09:42:33.201Z,98517.86
2019-04-21T09:45:30.818Z,98515.79
2019-04-21T09:48:48.521Z,98520.73
2019-04-21T09:51:41.840Z,98506.14
2019-04-21T09:54:56.448Z,98497.14
2019-04-21T09:57:56.936Z,98502.58
2019-04-21T10:01:09.816Z,98487.44
2019-04-21T10:04:05.803Z,98482.18
2019-04-21T10:07:23.389Z,98478.13
2019-04-21T10:10:17.341Z,98470.86
2019-04-21T10:13:22.989Z,98468.10
2019-04-21T10:16:40.575Z,98470.36
2019-04-21T10:19:46.376Z,98456.72
2019-04-21T10:22:51.272Z,98445.95
2019-04-21T10:25:56.824Z,98435.83
2019-04-21T10:29:08.229Z,98434.00
2019-04-21T10:32:09.071Z,98428.85
2019-04-21T10:35:15.007Z,98422.59
2019-04-21T10:38:30.190Z,98413.73
2019-04-21T10:41:27.577Z,98416.30
2019-04-21T10:44:32.330Z,98406.17
2019-04-21T10:47:38.786Z,98397.70
2019-04-21T10:50:45.212Z,98401.27
2019-04-21T10:53:53.871Z,98394.45
2019-04-21T10:56:58.829Z,98397.39
2019-04-21T11:00:04.498Z,98393.96
2019-04-21T11:03:29.061Z,98387.34
2019-04-21T11:06:34.757Z,98385.69
2019-04-21T11:09:40.203Z,98377.20
2019-04-21T11:12:47.565Z,98364.12
2019-04-21T11:15:50.995Z,98368.50
2019-04-21T11:18:56.014Z,98362.33
2019-04-21T11:22:01.100Z,98357.42
2019-04-21T11:25:07.435Z,98358.44
2019-04-21T11:28:14.304Z,98355.13
2019-04-21T11:31:18.773Z,98346.23
2019-04-21T11:34:25.077Z,98343.19
2019-04-21T11:37:32.321Z,98347.37
2019-04-21T11:40:38.084Z,98339.92
2019-04-21T11:43:43.266Z,98335.98
2019-04-21T11:46:48.815Z,98339.77
2019-04-21T11:49:54.861Z,98327.50
2019-04-21T11:52:59.373Z,98326.41
2019-04-21T11:56:04.865Z,98326.84
2019-04-21T11:59:09.963Z,98316.45
2019-04-21T12:02:15.227Z,98320.06
2019-04-21T12:05:21.343Z,98318.72
2019-04-21T12:08:33.207Z,98317.88
2019-04-21T12:11:33.681Z,98317.83
2019-04-21T12:14:39.625Z,98313.41
2019-04-21T12:17:45.845Z,98304.76
2019-04-21T12:20:51.624Z,98297.89
2019-04-21T12:23:56.663Z,98304.32
2019-04-21T12:27:02.253Z,98295.97
2019-04-21T12:30:11.421Z,98301.28
2019-04-21T12:33:18.195Z,98290.94
2019-04-21T12:36:24.049Z,98293.55
2019-04-21T12:39:30.436Z,98285.56
2019-04-21T12:42:37.627Z,98287.22
2019-04-21T12:45:42.024Z,98278.37
2019-04-21T12:48:46.920Z,98272.31
2019-04-21T12:51:51.588Z,98262.16
2019-04-21T12:54:57.602Z,98256.92
2019-04-21T12:58:03.407Z,98252.45
2019-04-21T13:01:09.222Z,98241.16
2019-04-21T13:04:13.828Z,98243.98
2019-04-21T13:07:19.407Z,98237.94
2019-04-21T13:10:24.424Z,98236.41
2019-04-21T13:13:30.144Z,98226.20
2019-04-21T13:16:34.758Z,98219.59
2019-04-21T13:19:39.200Z,98220.64
2019-04-21T13:22:43.981Z,98212.39
2019-04-21T13:25:49.751Z,98213.26
2019-04-21T13:28:54.446Z,98213.34
2019-04-21T13:32:00.132Z,98203.63
2019-04-21T13:35:06.113Z,98202.53
2019-04-21T13:38:19.949Z,98196.90
2019-04-21T13:41:32.811Z,98196.92
2019-04-21T13:44:24.953Z,98190.33
2019-04-21T13:47:30.530Z,98187.84
2019-04-21T13:50:35.466Z,98181.34
2019-04-21T13:53:40.013Z,98168.83
2019-04-21T13:56:44.998Z,98175.47
2019-04-21T13:59:51.252Z,98167.85
2019-04-21T14:02:56.453Z,98156.77
2019-04-21T14:06:02.402Z,98158.73
2019-04-21T14:09:10.996Z,98154.64
2019-04-21T14:12:15.441Z,98139.77
2019-04-21T14:15:22.035Z,98140.25
2019-04-21T14:18:27.057Z,98135.31
2019-04-21T14:21:31.786Z,98130.55
2019-04-21T14:24:37.086Z,98130.45
2019-04-21T14:27:44.302Z,98131.19
2019-04-21T14:30:50.350Z,98128.95
2019-04-21T14:33:56.308Z,98125.70
2019-04-21T14:37:02.544Z,98109.23
2019-04-21T14:40:15.519Z,98115.96
2019-04-21T14:43:16.464Z,98112.45
2019-04-21T14:46:22.947Z,98109.84
2019-04-21T14:49:47.149Z,98106.20
2019-04-21T14:53:08.128Z,98098.20
2019-04-21T14:56:13.280Z,98093.84
2019-04-21T14:59:19.228Z,98093.27
2019-04-21T15:02:23.712Z,98094.41
2019-04-21T15:05:29.369Z,98090.67
2019-04-21T15:08:35.235Z,98095.97
2019-04-21T15:11:40.183Z,98080.44
2019-04-21T15:14:44.941Z,98080.78
2019-04-21T15:17:49.527Z,98083.77
2019-04-21T15:20:55.182Z,98075.61
2019-04-21T15:24:00.399Z,98076.14
2019-04-21T15:27:05.118Z,98075.33
2019-04-21T15:30:11.054Z,98073.09
2019-04-21T15:33:16.274Z,98068.80
2019-04-21T15:36:21.055Z,98073.76
2019-04-21T15:39:25.785Z,98072.20
2019-04-21T15:42:30.637Z,98064.89
2019-04-21T15:45:35.103Z,98058.69
2019-04-21T15:48:41.117Z,98064.20
2019-04-21T15:51:46.389Z,98054.98
2019-04-21T15:54:52.456Z,98052.29
2019-04-21T15:58:02.610Z,98049.31
2019-04-21T16:01:21.165Z,98044.56
2019-04-21T16:04:25.612Z,98041.73
2019-04-21T16:07:30.062Z,98038.05
2019-04-21T16:10:43.677Z,98037.91
2019-04-21T16:13:41.680Z,98029.13
2019-04-21T16:16:47.458Z,98026.73
2019-04-21T16:19:52.254Z,98024.66
2019-04-21T16:22:56.904Z,98024.43
2019-04-21T16:26:02.585Z,98019.98
2019-04-21T16:29:08.965Z,98014.60
2019-04-21T16:32:16.353Z,98022.59
2019-04-21T16:35:21.727Z,98026.07
2019-04-21T16:38:26.622Z,98026.00
2019-04-21T16:41:32.134Z,98018.67
2019-04-21T16:44:37.055Z,98010.24
2019-04-21T16:47:42.146Z,98010.33
2019-04-21T16:50:47.803Z,98010.59
2019-04-21T16:53:53.988Z,98007.81
2019-04-21T16:57:03.730Z,98008.42
2019-04-21T17:00:12.798Z,98007.41
2019-04-21T17:03:18.826Z,98006.41
2019-04-21T17:06:24.864Z,98007.98
2019-04-21T17:09:30.653Z,97998.41
2019-04-21T17:12:35.663Z,98001.20
2019-04-21T17:15:56.613Z,97995.45
2019-04-21T17:18:57.440Z,97992.45
2019-04-21T17:21:53.505Z,97995.97
2019-04-21T17:24:58.335Z,97990.38
2019-04-21T17:28:03.580Z,97992.98
2019-04-21T17:31:08.596Z,97992.67
2019-04-21T17:34:17.990Z,97999.13
2019-04-21T17:37:22.036Z,97985.67
2019-04-21T17:40:27.312Z,97986.91
2019-04-21T17:43:32.000Z,97984.28
2019-04-21T17:46:45.824Z,97990.40
2019-04-21T17:49:43.130Z,97989.67
2019-04-21T17:53:10.696Z,97987.34
2019-04-21T17:56:48.132Z,97993.23
2019-04-21T17:59:53.737Z,97994.58
2019-04-21T18:02:47.906Z,97995.37
2019-04-21T18:05:46.917Z,97999.33
2019-04-21T18:09:04.392Z,98004.95
2019-04-21T18:12:05.790Z,98002.26
2019-04-21T18:15:01.436Z,97999.53
2019-04-21T18:17:58.678Z,98003.59
2019-04-21T18:21:14.580Z,98005.73
2019-04-21T18:24:31.876Z,98007.38
2019-04-21T18:27:29.716Z,98004.27
2019-04-21T18:30:48.718Z,98006.75
2019-04-21T18:34:03.497Z,98003.25
2019-04-21T18:37:05.488Z,97998.46
2019-04-21T18:40:16.762Z,98001.69
2019-04-21T18:43:48.918Z,98002.31
2019-04-21T18:46:52.567Z,97997.43
2019-04-21T18:49:44.096Z,97999.38
2019-04-21T18:53:04.860Z,98007.03
2019-04-21T18:56:03.748Z,98004.84
2019-04-21T18:59:04.587Z,97999.53
2019-04-21T19:02:11.233Z,98002.14
2019-04-21T19:05:21.039Z,98011.09
2019-04-21T19:08:39.249Z,98010.06
2019-04-21T19:11:49.945Z,98013.92
2019-04-21T19:14:51.057Z,98014.70
2019-04-21T19:18:29.650Z,98003.52
2019-04-21T19:21:00.270Z,98005.56
2019-04-21T19:24:17.884Z,98010.85
2019-04-21T19:27:17.619Z,98009.45
2019-04-21T19:33:29.640Z,98008.69
2019-04-21T19:36:21.559Z,98012.70
2019-04-21T19:39:39.168Z,98004.35
2019-04-21T19:42:43.770Z,98012.27
2019-04-21T19:45:54.096Z,98009.87
2019-04-21T19:49:10.683Z,98012.84
2019-04-21T19:52:01.286Z,98003.66
2019-04-21T19:54:58.641Z,98005.63
2019-04-21T19:58:05.097Z,98010.41
2019-04-21T20:01:11.782Z,98007.92
2019-04-21T20:04:16.912Z,98008.34
2019-04-21T20:07:38.191Z,98000.73
2019-04-21T20:10:48.465Z,98001.58
2019-04-21T20:14:13.713Z,98004.31
2019-04-21T20:16:54.485Z,98002.91
2019-04-21T20:19:47.899Z,97996.30
2019-04-21T20:22:54.235Z,97999.27
2019-04-21T20:26:02.429Z,97993.55
2019-04-21T20:29:22.998Z,97995.08
2019-04-21T20:35:46.906Z,97990.86
2019-04-21T20:38:35.804Z,97992.57
2019-04-21T20:41:40.944Z,97986.10
2019-04-21T20:45:14.812Z,97983.95
2019-04-21T20:47:48.983Z,97994.99
2019-04-21T20:51:06.408Z,97997.20
2019-04-21T20:54:17.602Z,97988.60
2019-04-21T20:57:18.986Z,97991.08
2019-04-21T21:00:33.998Z,97977.96
2019-04-21T21:03:34.904Z,97981.47
2019-04-21T21:06:38.483Z,97984.97
2019-04-21T21:09:52.258Z,97980.23
2019-04-21T21:13:00.597Z,97981.84
2019-04-21T21:16:10.230Z,97979.22
2019-04-21T21:22:06.023Z,97984.20
2019-04-21T21:25:25.587Z,97980.04
2019-04-21T21:28:22.566Z,97974.77
2019-04-21T21:31:31.304Z,97974.45
2019-04-21T21:34:42.559Z,97968.73
2019-04-21T21:37:49.530Z,97967.55
2019-04-21T21:40:45.567Z,97965.45
2019-04-21T21:43:39.438Z,97964.95
2019-04-21T21:46:58.894Z,97968.36
2019-04-21T21:50:01.196Z,97969.30
2019-04-21T21:53:04.270Z,97966.67
2019-04-21T21:56:04.570Z,97961.45
2019-04-21T21:59:15.964Z,97967.01
2019-04-21T22:02:26.239Z,97966.83
2019-04-21T22:05:26.031Z,97963.55
2019-04-21T22:08:30.443Z,97963.55
2019-04-21T22:11:35.879Z,97964.05
2019-04-21T22:14:44.910Z,97960.38
2019-04-21T22:18:07.332Z,97959.92
2019-04-21T22:21:09.110Z,97949.19
2019-04-21T22:24:08.720Z,97951.40
2019-04-21T22:27:07.360Z,97955.79
2019-04-21T22:30:14.659Z,97950.81
2019-04-21T22:33:21.286Z,97953.84
2019-04-21T22:36:35.518Z,97950.25
2019-04-21T22:39:48.603Z,97949.98
2019-04-21T22:42:50.104Z,97949.39
2019-04-21T22:45:45.373Z,97952.88
2019-04-21T22:48:53.123Z,97952.80
2019-04-21T22:52:00.794Z,97953.09
2019-04-21T22:55:08.254Z,97946.47
2019-04-21T22:58:09.625Z,97942.73
2019-04-21T23:01:20.111Z,97948.98
2019-04-21T23:04:21.023Z,97937.48
2019-04-21T23:07:26.623Z,97945.58
2019-04-21T23:10:32.401Z,97940.28
2019-04-21T23:13:40.042Z,97941.69
2019-04-21T23:16:45.609Z,97939.55
2019-04-21T23:20:09.528Z,97936.09
2019-04-21T23:23:17.616Z,97937.75
2019-04-21T23:26:23.757Z,97925.70
2019-04-21T23:29:39.331Z,97923.16
2019-04-21T23:32:29.424Z,97919.72
2019-04-21T23:35:27.779Z,97918.41
2019-04-21T23:38:34.939Z,97913.89
2019-04-21T23:41:40.467Z,97915.35
2019-04-21T23:44:47.032Z,97913.01
2019-04-21T23:47:57.927Z,97908.64
2019-04-21T23:51:01.866Z,97913.31
2019-04-21T23:53:59.535Z,97910.77
2019-04-21T23:57:14.206Z,97903.45
